sensor_id;sensor_type;location;lat;lon;timestamp;P1;durP1;ratioP1;P2;durP2;ratioP2
2035;SDS011;23642;42.658;23.350;2023-10-13T00:00:22;115.20;;;107.53;;
2035;SDS011;23642;42.658;23.350;2023-10-13T00:03:03;112.73;;;105.23;;
2035;SDS011;23642;42.658;23.350;2023-10-13T00:05:42;109.87;;;102.70;;
2035;SDS011;23642;42.658;23.350;2023-10-13T00:08:36;109.67;;;101.90;;
2035;SDS011;23642;42.658;23.350;2023-10-13T00:11:10;110.30;;;102.80;;
2035;SDS011;23642;42.658;23.350;2023-10-13T00:13:40;112.90;;;105.60;;
2035;SDS011;23642;42.658;23.350;2023-10-13T00:16:23;110.77;;;103.20;;
2035;SDS011;23642;42.658;23.350;2023-10-13T00:19:04;108.70;;;101.33;;
2035;SDS011;23642;42.658;23.350;2023-10-13T00:21:49;111.20;;;103.63;;
2035;SDS011;23642;42.658;23.350;2023-10-13T00:24:42;112.10;;;104.80;;
2035;SDS011;23642;42.658;23.350;2023-10-13T00:27:28;113.90;;;106.33;;
2035;SDS011;23642;42.658;23.350;2023-10-13T00:30:13;114.80;;;107.10;;
2035;SDS011;23642;42.658;23.350;2023-10-13T00:32:59;111.30;;;104.03;;
2035;SDS011;23642;42.658;23.350;2023-10-13T00:35:31;111.23;;;104.13;;
2035;SDS011;23642;42.658;23.350;2023-10-13T00:38:04;107.47;;;100.70;;
2035;SDS011;23642;42.658;23.350;2023-10-13T00:40:53;112.23;;;104.53;;
2035;SDS011;23642;42.658;23.350;2023-10-13T00:43:44;111.67;;;104.30;;
2035;SDS011;23642;42.658;23.350;2023-10-13T00:46:51;108.20;;;101.20;;
2035;SDS011;23642;42.658;23.350;2023-10-13T00:49:26;110.57;;;103.20;;
2035;SDS011;23642;42.658;23.350;2023-10-13T00:52:15;109.27;;;102.27;;
2035;SDS011;23642;42.658;23.350;2023-10-13T00:55:02;111.37;;;103.93;;
2035;SDS011;23642;42.658;23.350;2023-10-13T00:57:45;114.17;;;106.17;;
2035;SDS011;23642;42.658;23.350;2023-10-13T01:00:33;113.20;;;105.80;;
2035;SDS011;23642;42.658;23.350;2023-10-13T01:03:20;111.40;;;104.10;;
2035;SDS011;23642;42.658;23.350;2023-10-13T01:05:52;113.40;;;105.83;;
2035;SDS011;23642;42.658;23.350;2023-10-13T01:08:30;114.60;;;107.20;;
2035;SDS011;23642;42.658;23.350;2023-10-13T01:11:11;111.60;;;104.20;;
2035;SDS011;23642;42.658;23.350;2023-10-13T01:15:54;114.47;;;106.90;;
2035;SDS011;23642;42.658;23.350;2023-10-13T01:17:09;113.77;;;105.70;;
2035;SDS011;23642;42.658;23.350;2023-10-13T01:19:39;114.97;;;107.40;;
2035;SDS011;23642;42.658;23.350;2023-10-13T01:22:30;114.23;;;106.53;;
2035;SDS011;23642;42.658;23.350;2023-10-13T01:25:14;115.13;;;107.10;;
2035;SDS011;23642;42.658;23.350;2023-10-13T01:27:51;110.10;;;103.13;;
2035;SDS011;23642;42.658;23.350;2023-10-13T01:34:08;112.83;;;105.27;;
2035;SDS011;23642;42.658;23.350;2023-10-13T01:36:58;112.77;;;105.23;;
2035;SDS011;23642;42.658;23.350;2023-10-13T01:39:31;115.17;;;107.47;;
2035;SDS011;23642;42.658;23.350;2023-10-13T01:42:06;109.97;;;102.73;;
2035;SDS011;23642;42.658;23.350;2023-10-13T01:44:32;113.27;;;105.43;;
2035;SDS011;23642;42.658;23.350;2023-10-13T01:47:01;115.17;;;107.47;;
2035;SDS011;23642;42.658;23.350;2023-10-13T01:49:31;113.97;;;106.23;;
2035;SDS011;23642;42.658;23.350;2023-10-13T01:52:06;113.20;;;105.63;;
2035;SDS011;23642;42.658;23.350;2023-10-13T01:54:33;112.53;;;104.67;;
2035;SDS011;23642;42.658;23.350;2023-10-13T01:57:00;109.03;;;101.53;;
2035;SDS011;23642;42.658;23.350;2023-10-13T01:59:30;113.20;;;105.70;;
2035;SDS011;23642;42.658;23.350;2023-10-13T02:01:57;112.60;;;105.00;;
2035;SDS011;23642;42.658;23.350;2023-10-13T02:04:27;106.93;;;99.77;;
2035;SDS011;23642;42.658;23.350;2023-10-13T02:06:53;113.00;;;105.67;;
2035;SDS011;23642;42.658;23.350;2023-10-13T02:09:21;112.40;;;104.87;;
2035;SDS011;23642;42.658;23.350;2023-10-13T02:11:52;110.33;;;102.93;;
2035;SDS011;23642;42.658;23.350;2023-10-13T02:14:19;110.07;;;102.37;;
2035;SDS011;23642;42.658;23.350;2023-10-13T02:16:49;111.60;;;103.87;;
2035;SDS011;23642;42.658;23.350;2023-10-13T02:19:15;109.83;;;102.50;;
2035;SDS011;23642;42.658;23.350;2023-10-13T02:21:44;110.83;;;103.63;;
2035;SDS011;23642;42.658;23.350;2023-10-13T02:24:10;110.67;;;103.63;;
2035;SDS011;23642;42.658;23.350;2023-10-13T02:26:43;111.33;;;104.00;;
2035;SDS011;23642;42.658;23.350;2023-10-13T02:29:09;111.57;;;103.93;;
2035;SDS011;23642;42.658;23.350;2023-10-13T02:31:38;114.80;;;107.27;;
2035;SDS011;23642;42.658;23.350;2023-10-13T02:34:07;109.10;;;101.97;;
2035;SDS011;23642;42.658;23.350;2023-10-13T02:36:34;109.27;;;101.97;;
2035;SDS011;23642;42.658;23.350;2023-10-13T02:39:09;108.83;;;100.90;;
2035;SDS011;23642;42.658;23.350;2023-10-13T02:41:39;109.30;;;101.40;;
2035;SDS011;23642;42.658;23.350;2023-10-13T02:44:12;110.80;;;103.43;;
2035;SDS011;23642;42.658;23.350;2023-10-13T02:46:45;114.90;;;107.20;;
2035;SDS011;23642;42.658;23.350;2023-10-13T02:49:16;109.57;;;102.07;;
2035;SDS011;23642;42.658;23.350;2023-10-13T02:51:44;107.67;;;99.80;;
2035;SDS011;23642;42.658;23.350;2023-10-13T02:54:10;103.83;;;96.43;;
2035;SDS011;23642;42.658;23.350;2023-10-13T02:56:43;102.97;;;95.67;;
2035;SDS011;23642;42.658;23.350;2023-10-13T02:59:13;105.50;;;98.27;;
2035;SDS011;23642;42.658;23.350;2023-10-13T03:01:46;103.07;;;95.77;;
2035;SDS011;23642;42.658;23.350;2023-10-13T03:04:18;105.80;;;98.57;;
2035;SDS011;23642;42.658;23.350;2023-10-13T03:06:50;103.57;;;96.30;;
2035;SDS011;23642;42.658;23.350;2023-10-13T03:09:16;101.10;;;93.80;;
2035;SDS011;23642;42.658;23.350;2023-10-13T03:11:43;99.83;;;92.27;;
2035;SDS011;23642;42.658;23.350;2023-10-13T03:14:13;103.80;;;96.47;;
2035;SDS011;23642;42.658;23.350;2023-10-13T03:16:49;104.80;;;97.67;;
2035;SDS011;23642;42.658;23.350;2023-10-13T03:19:20;105.17;;;98.10;;
2035;SDS011;23642;42.658;23.350;2023-10-13T03:21:47;105.70;;;98.20;;
2035;SDS011;23642;42.658;23.350;2023-10-13T03:24:20;102.60;;;95.70;;
2035;SDS011;23642;42.658;23.350;2023-10-13T03:26:58;105.43;;;97.67;;
2035;SDS011;23642;42.658;23.350;2023-10-13T03:29:24;104.90;;;97.50;;
2035;SDS011;23642;42.658;23.350;2023-10-13T03:31:56;104.03;;;96.90;;
2035;SDS011;23642;42.658;23.350;2023-10-13T03:34:33;105.43;;;98.20;;
2035;SDS011;23642;42.658;23.350;2023-10-13T03:37:06;104.23;;;96.40;;
2035;SDS011;23642;42.658;23.350;2023-10-13T03:39:42;106.23;;;98.47;;
2035;SDS011;23642;42.658;23.350;2023-10-13T03:42:10;108.73;;;101.03;;
2035;SDS011;23642;42.658;23.350;2023-10-13T03:44:43;106.30;;;98.77;;
2035;SDS011;23642;42.658;23.350;2023-10-13T03:47:14;103.53;;;96.20;;
2035;SDS011;23642;42.658;23.350;2023-10-13T03:49:54;107.00;;;99.20;;
2035;SDS011;23642;42.658;23.350;2023-10-13T03:52:40;108.70;;;100.93;;
2035;SDS011;23642;42.658;23.350;2023-10-13T03:55:07;105.37;;;97.80;;
2035;SDS011;23642;42.658;23.350;2023-10-13T03:57:42;104.17;;;96.77;;
2035;SDS011;23642;42.658;23.350;2023-10-13T04:00:15;103.20;;;95.87;;
2035;SDS011;23642;42.658;23.350;2023-10-13T04:02:50;106.13;;;97.20;;
2035;SDS011;23642;42.658;23.350;2023-10-13T04:05:34;104.33;;;96.83;;
2035;SDS011;23642;42.658;23.350;2023-10-13T04:08:10;105.33;;;97.93;;
2035;SDS011;23642;42.658;23.350;2023-10-13T04:10:55;107.50;;;98.53;;
2035;SDS011;23642;42.658;23.350;2023-10-13T04:13:42;107.23;;;99.73;;
2035;SDS011;23642;42.658;23.350;2023-10-13T04:16:29;107.97;;;100.00;;
2035;SDS011;23642;42.658;23.350;2023-10-13T04:19:02;105.17;;;97.70;;
2035;SDS011;23642;42.658;23.350;2023-10-13T04:21:49;109.47;;;101.70;;
2035;SDS011;23642;42.658;23.350;2023-10-13T04:24:26;110.37;;;100.97;;
2035;SDS011;23642;42.658;23.350;2023-10-13T04:27:14;112.53;;;103.83;;
2035;SDS011;23642;42.658;23.350;2023-10-13T04:30:06;111.30;;;103.23;;
2035;SDS011;23642;42.658;23.350;2023-10-13T04:32:36;108.10;;;99.80;;
2035;SDS011;23642;42.658;23.350;2023-10-13T04:35:11;112.93;;;103.07;;
2035;SDS011;23642;42.658;23.350;2023-10-13T04:37:51;109.50;;;101.37;;
2035;SDS011;23642;42.658;23.350;2023-10-13T04:40:23;113.47;;;104.37;;
2035;SDS011;23642;42.658;23.350;2023-10-13T04:42:50;110.73;;;101.87;;
2035;SDS011;23642;42.658;23.350;2023-10-13T04:45:27;109.87;;;101.60;;
2035;SDS011;23642;42.658;23.350;2023-10-13T04:48:14;112.77;;;104.57;;
2035;SDS011;23642;42.658;23.350;2023-10-13T04:50:58;110.53;;;102.33;;
2035;SDS011;23642;42.658;23.350;2023-10-13T04:53:46;110.53;;;102.33;;
2035;SDS011;23642;42.658;23.350;2023-10-13T04:56:36;111.33;;;102.90;;
2035;SDS011;23642;42.658;23.350;2023-10-13T04:59:20;113.03;;;104.33;;
2035;SDS011;23642;42.658;23.350;2023-10-13T05:02:18;108.32;;;99.68;;
2035;SDS011;23642;42.658;23.350;2023-10-13T05:05:22;112.70;;;103.40;;
2035;SDS011;23642;42.658;23.350;2023-10-13T05:08:10;113.83;;;104.80;;
2035;SDS011;23642;42.658;23.350;2023-10-13T05:11:04;117.53;;;107.70;;
2035;SDS011;23642;42.658;23.350;2023-10-13T05:13:51;114.07;;;105.43;;
2035;SDS011;23642;42.658;23.350;2023-10-13T05:16:39;116.47;;;107.23;;
2035;SDS011;23642;42.658;23.350;2023-10-13T05:19:32;114.93;;;105.43;;
2035;SDS011;23642;42.658;23.350;2023-10-13T05:22:20;119.40;;;108.23;;
2035;SDS011;23642;42.658;23.350;2023-10-13T05:25:20;116.50;;;106.77;;
2035;SDS011;23642;42.658;23.350;2023-10-13T05:28:07;117.83;;;108.70;;
2035;SDS011;23642;42.658;23.350;2023-10-13T05:30:58;116.13;;;106.57;;
2035;SDS011;23642;42.658;23.350;2023-10-13T05:33:58;117.07;;;108.03;;
2035;SDS011;23642;42.658;23.350;2023-10-13T05:36:45;118.97;;;109.90;;
2035;SDS011;23642;42.658;23.350;2023-10-13T05:39:36;117.77;;;109.40;;
2035;SDS011;23642;42.658;23.350;2023-10-13T05:42:23;111.37;;;103.37;;
2035;SDS011;23642;42.658;23.350;2023-10-13T05:45:13;119.33;;;110.20;;
2035;SDS011;23642;42.658;23.350;2023-10-13T05:48:08;119.73;;;110.07;;
2035;SDS011;23642;42.658;23.350;2023-10-13T05:50:39;121.40;;;112.60;;
2035;SDS011;23642;42.658;23.350;2023-10-13T05:53:47;119.60;;;110.40;;
2035;SDS011;23642;42.658;23.350;2023-10-13T05:57:12;120.23;;;110.50;;
2035;SDS011;23642;42.658;23.350;2023-10-13T06:00:06;121.47;;;112.00;;
2035;SDS011;23642;42.658;23.350;2023-10-13T06:02:57;124.30;;;114.47;;
2035;SDS011;23642;42.658;23.350;2023-10-13T06:06:06;122.87;;;114.03;;
2035;SDS011;23642;42.658;23.350;2023-10-13T06:09:07;121.53;;;112.03;;
2035;SDS011;23642;42.658;23.350;2023-10-13T06:12:17;124.07;;;113.93;;
2035;SDS011;23642;42.658;23.350;2023-10-13T06:15:13;126.93;;;117.73;;
2035;SDS011;23642;42.658;23.350;2023-10-13T06:18:25;129.87;;;120.10;;
2035;SDS011;23642;42.658;23.350;2023-10-13T06:21:42;129.10;;;118.77;;
2035;SDS011;23642;42.658;23.350;2023-10-13T06:28:41;126.00;;;116.87;;
2035;SDS011;23642;42.658;23.350;2023-10-13T06:31:47;128.00;;;118.37;;
2035;SDS011;23642;42.658;23.350;2023-10-13T06:37:40;126.17;;;117.23;;
2035;SDS011;23642;42.658;23.350;2023-10-13T06:40:44;128.50;;;119.10;;
2035;SDS011;23642;42.658;23.350;2023-10-13T06:43:54;126.77;;;117.87;;
2035;SDS011;23642;42.658;23.350;2023-10-13T06:46:42;125.33;;;116.03;;
2035;SDS011;23642;42.658;23.350;2023-10-13T06:49:41;125.87;;;116.97;;
2035;SDS011;23642;42.658;23.350;2023-10-13T06:52:39;126.40;;;117.53;;
2035;SDS011;23642;42.658;23.350;2023-10-13T06:55:25;127.40;;;117.87;;
2035;SDS011;23642;42.658;23.350;2023-10-13T07:01:55;127.90;;;118.93;;
2035;SDS011;23642;42.658;23.350;2023-10-13T07:05:00;133.20;;;122.77;;
2035;SDS011;23642;42.658;23.350;2023-10-13T07:07:45;133.93;;;124.30;;
2035;SDS011;23642;42.658;23.350;2023-10-13T07:11:48;130.23;;;120.60;;
2035;SDS011;23642;42.658;23.350;2023-10-13T07:14:01;128.07;;;118.87;;
2035;SDS011;23642;42.658;23.350;2023-10-13T07:16:59;125.43;;;116.70;;
2035;SDS011;23642;42.658;23.350;2023-10-13T07:19:49;126.20;;;117.20;;
2035;SDS011;23642;42.658;23.350;2023-10-13T07:22:42;126.60;;;117.47;;
2035;SDS011;23642;42.658;23.350;2023-10-13T07:25:51;125.87;;;116.87;;
2035;SDS011;23642;42.658;23.350;2023-10-13T07:28:38;126.60;;;117.50;;
2035;SDS011;23642;42.658;23.350;2023-10-13T07:31:38;130.33;;;120.63;;
2035;SDS011;23642;42.658;23.350;2023-10-13T07:34:20;127.77;;;118.80;;
2035;SDS011;23642;42.658;23.350;2023-10-13T07:38:21;128.70;;;119.20;;
2035;SDS011;23642;42.658;23.350;2023-10-13T07:40:10;127.53;;;118.00;;
2035;SDS011;23642;42.658;23.350;2023-10-13T07:43:25;126.20;;;117.30;;
2035;SDS011;23642;42.658;23.350;2023-10-13T07:46:41;129.00;;;120.30;;
2035;SDS011;23642;42.658;23.350;2023-10-13T07:52:53;128.50;;;119.30;;
2035;SDS011;23642;42.658;23.350;2023-10-13T07:55:39;127.03;;;117.93;;
2035;SDS011;23642;42.658;23.350;2023-10-13T07:58:28;125.73;;;117.10;;
2035;SDS011;23642;42.658;23.350;2023-10-13T08:01:15;130.23;;;120.37;;
2035;SDS011;23642;42.658;23.350;2023-10-13T08:04:19;129.10;;;119.57;;
2035;SDS011;23642;42.658;23.350;2023-10-13T08:07:11;127.57;;;118.50;;
2035;SDS011;23642;42.658;23.350;2023-10-13T08:10:00;125.83;;;116.80;;
2035;SDS011;23642;42.658;23.350;2023-10-13T08:12:58;122.77;;;114.07;;
2035;SDS011;23642;42.658;23.350;2023-10-13T08:18:51;125.53;;;116.53;;
2035;SDS011;23642;42.658;23.350;2023-10-13T08:21:28;125.70;;;116.47;;
2035;SDS011;23642;42.658;23.350;2023-10-13T08:24:35;125.30;;;116.30;;
2035;SDS011;23642;42.658;23.350;2023-10-13T08:27:58;125.53;;;116.27;;
2035;SDS011;23642;42.658;23.350;2023-10-13T08:31:02;119.63;;;111.50;;
2035;SDS011;23642;42.658;23.350;2023-10-13T08:34:29;121.87;;;113.37;;
2035;SDS011;23642;42.658;23.350;2023-10-13T08:37:42;123.07;;;114.05;;
2035;SDS011;23642;42.658;23.350;2023-10-13T08:47:36;129.87;;;120.67;;
2035;SDS011;23642;42.658;23.350;2023-10-13T08:51:13;134.90;;;124.93;;
2035;SDS011;23642;42.658;23.350;2023-10-13T09:12:19;129.90;;;120.80;;
2035;SDS011;23642;42.658;23.350;2023-10-13T09:16:08;127.20;;;118.07;;
2035;SDS011;23642;42.658;23.350;2023-10-13T09:19:12;131.77;;;122.17;;
2035;SDS011;23642;42.658;23.350;2023-10-13T09:50:02;127.53;;;118.70;;
2035;SDS011;23642;42.658;23.350;2023-10-13T09:52:52;129.57;;;120.47;;
2035;SDS011;23642;42.658;23.350;2023-10-13T09:55:27;124.83;;;116.80;;
2035;SDS011;23642;42.658;23.350;2023-10-13T09:58:02;120.67;;;112.47;;
2035;SDS011;23642;42.658;23.350;2023-10-13T10:00:46;130.17;;;120.67;;
2035;SDS011;23642;42.658;23.350;2023-10-13T10:03:24;123.17;;;114.97;;
2035;SDS011;23642;42.658;23.350;2023-10-13T10:06:23;126.00;;;117.70;;
2035;SDS011;23642;42.658;23.350;2023-10-13T10:09:04;125.17;;;116.10;;
2035;SDS011;23642;42.658;23.350;2023-10-13T10:14:52;124.80;;;116.20;;
2035;SDS011;23642;42.658;23.350;2023-10-13T10:17:37;125.37;;;116.60;;
2035;SDS011;23642;42.658;23.350;2023-10-13T10:20:13;117.43;;;109.97;;
2035;SDS011;23642;42.658;23.350;2023-10-13T10:23:00;121.23;;;113.20;;
2035;SDS011;23642;42.658;23.350;2023-10-13T10:25:33;117.83;;;109.43;;
2035;SDS011;23642;42.658;23.350;2023-10-13T10:28:07;121.67;;;113.50;;
2035;SDS011;23642;42.658;23.350;2023-10-13T10:34:00;122.80;;;114.53;;
2035;SDS011;23642;42.658;23.350;2023-10-13T10:36:44;121.17;;;113.57;;
2035;SDS011;23642;42.658;23.350;2023-10-13T10:39:41;118.80;;;111.40;;
2035;SDS011;23642;42.658;23.350;2023-10-13T10:42:14;117.73;;;110.43;;
2035;SDS011;23642;42.658;23.350;2023-10-13T10:44:43;114.93;;;107.70;;
2035;SDS011;23642;42.658;23.350;2023-10-13T10:47:18;117.23;;;109.80;;
2035;SDS011;23642;42.658;23.350;2023-10-13T10:50:24;117.13;;;109.80;;
2035;SDS011;23642;42.658;23.350;2023-10-13T10:53:12;116.17;;;109.00;;
2035;SDS011;23642;42.658;23.350;2023-10-13T10:56:10;121.70;;;113.33;;
2035;SDS011;23642;42.658;23.350;2023-10-13T10:59:07;117.03;;;110.00;;
2035;SDS011;23642;42.658;23.350;2023-10-13T11:01:53;118.33;;;110.80;;
2035;SDS011;23642;42.658;23.350;2023-10-13T11:04:43;114.73;;;107.40;;
2035;SDS011;23642;42.658;23.350;2023-10-13T11:07:47;115.80;;;108.10;;
2035;SDS011;23642;42.658;23.350;2023-10-13T11:10:24;117.50;;;110.33;;
2035;SDS011;23642;42.658;23.350;2023-10-13T11:14:00;119.73;;;112.13;;
2035;SDS011;23642;42.658;23.350;2023-10-13T11:16:46;116.07;;;108.40;;
2035;SDS011;23642;42.658;23.350;2023-10-13T11:19:50;116.50;;;109.43;;
2035;SDS011;23642;42.658;23.350;2023-10-13T11:25:32;115.30;;;108.20;;
2035;SDS011;23642;42.658;23.350;2023-10-13T11:28:16;116.43;;;108.73;;
2035;SDS011;23642;42.658;23.350;2023-10-13T11:30:59;113.73;;;106.93;;
2035;SDS011;23642;42.658;23.350;2023-10-13T11:33:45;113.73;;;106.60;;
2035;SDS011;23642;42.658;23.350;2023-10-13T11:36:38;110.07;;;103.37;;
2035;SDS011;23642;42.658;23.350;2023-10-13T11:39:22;111.90;;;105.20;;
2035;SDS011;23642;42.658;23.350;2023-10-13T11:41:59;111.00;;;104.40;;
2035;SDS011;23642;42.658;23.350;2023-10-13T11:44:38;110.33;;;103.53;;
2035;SDS011;23642;42.658;23.350;2023-10-13T11:47:17;115.27;;;107.93;;
2035;SDS011;23642;42.658;23.350;2023-10-13T11:59:56;115.57;;;108.30;;
2035;SDS011;23642;42.658;23.350;2023-10-13T12:02:50;114.40;;;107.20;;
2035;SDS011;23642;42.658;23.350;2023-10-13T12:05:48;113.50;;;106.30;;
2035;SDS011;23642;42.658;23.350;2023-10-13T12:09:07;113.87;;;106.83;;
2035;SDS011;23642;42.658;23.350;2023-10-13T12:12:13;113.40;;;106.60;;
2035;SDS011;23642;42.658;23.350;2023-10-13T12:15:00;114.10;;;107.17;;
2035;SDS011;23642;42.658;23.350;2023-10-13T12:17:44;115.73;;;108.70;;
2035;SDS011;23642;42.658;23.350;2023-10-13T12:20:13;114.70;;;106.97;;
2035;SDS011;23642;42.658;23.350;2023-10-13T12:23:19;114.27;;;106.87;;
2035;SDS011;23642;42.658;23.350;2023-10-13T12:26:23;111.83;;;104.93;;
2035;SDS011;23642;42.658;23.350;2023-10-13T12:33:28;111.40;;;103.90;;
2035;SDS011;23642;42.658;23.350;2023-10-13T12:36:24;109.10;;;102.70;;
2035;SDS011;23642;42.658;23.350;2023-10-13T13:10:55;111.07;;;104.40;;
2035;SDS011;23642;42.658;23.350;2023-10-13T13:13:43;110.30;;;102.90;;
2035;SDS011;23642;42.658;23.350;2023-10-13T13:16:38;110.37;;;103.57;;
2035;SDS011;23642;42.658;23.350;2023-10-13T13:19:43;108.23;;;101.60;;
2035;SDS011;23642;42.658;23.350;2023-10-13T13:26:30;109.13;;;102.10;;
2035;SDS011;23642;42.658;23.350;2023-10-13T13:34:16;113.97;;;107.03;;
2035;SDS011;23642;42.658;23.350;2023-10-13T13:36:54;111.40;;;104.37;;
2035;SDS011;23642;42.658;23.350;2023-10-13T13:39:50;109.93;;;102.43;;
2035;SDS011;23642;42.658;23.350;2023-10-13T13:46:07;113.47;;;106.13;;
2035;SDS011;23642;42.658;23.350;2023-10-13T13:49:20;108.43;;;101.83;;
2035;SDS011;23642;42.658;23.350;2023-10-13T13:52:09;111.40;;;104.73;;
2035;SDS011;23642;42.658;23.350;2023-10-13T13:57:37;114.97;;;108.10;;
2035;SDS011;23642;42.658;23.350;2023-10-13T14:00:28;116.27;;;109.23;;
2035;SDS011;23642;42.658;23.350;2023-10-13T14:04:20;114.17;;;107.27;;
2035;SDS011;23642;42.658;23.350;2023-10-13T14:20:11;113.17;;;105.57;;
2035;SDS011;23642;42.658;23.350;2023-10-13T14:22:50;108.80;;;101.67;;
2035;SDS011;23642;42.658;23.350;2023-10-13T14:25:36;111.90;;;104.90;;
2035;SDS011;23642;42.658;23.350;2023-10-13T14:28:19;111.60;;;104.53;;
2035;SDS011;23642;42.658;23.350;2023-10-13T14:31:14;109.33;;;102.57;;
2035;SDS011;23642;42.658;23.350;2023-10-13T14:37:46;112.57;;;105.80;;
2035;SDS011;23642;42.658;23.350;2023-10-13T14:40:44;111.13;;;104.23;;
2035;SDS011;23642;42.658;23.350;2023-10-13T14:43:50;109.60;;;101.70;;
2035;SDS011;23642;42.658;23.350;2023-10-13T14:46:30;110.60;;;102.90;;
2035;SDS011;23642;42.658;23.350;2023-10-13T14:49:01;108.93;;;102.33;;
2035;SDS011;23642;42.658;23.350;2023-10-13T14:51:45;110.67;;;103.67;;
2035;SDS011;23642;42.658;23.350;2023-10-13T14:54:43;110.67;;;103.20;;
2035;SDS011;23642;42.658;23.350;2023-10-13T14:57:38;107.07;;;100.20;;
2035;SDS011;23642;42.658;23.350;2023-10-13T15:00:20;105.57;;;99.00;;
2035;SDS011;23642;42.658;23.350;2023-10-13T15:03:07;104.87;;;97.80;;
2035;SDS011;23642;42.658;23.350;2023-10-13T15:05:43;102.03;;;95.63;;
2035;SDS011;23642;42.658;23.350;2023-10-13T15:08:43;102.27;;;95.57;;
2035;SDS011;23642;42.658;23.350;2023-10-13T15:11:27;100.57;;;93.27;;
2035;SDS011;23642;42.658;23.350;2023-10-13T15:14:35;103.33;;;95.93;;
2035;SDS011;23642;42.658;23.350;2023-10-13T15:17:09;106.07;;;98.03;;
2035;SDS011;23642;42.658;23.350;2023-10-13T15:19:37;100.47;;;93.63;;
2035;SDS011;23642;42.658;23.350;2023-10-13T15:22:42;101.40;;;94.20;;
2035;SDS011;23642;42.658;23.350;2023-10-13T15:25:37;103.33;;;95.67;;
2035;SDS011;23642;42.658;23.350;2023-10-13T15:28:18;105.90;;;98.10;;
2035;SDS011;23642;42.658;23.350;2023-10-13T15:30:46;105.27;;;96.93;;
2035;SDS011;23642;42.658;23.350;2023-10-13T15:33:22;104.73;;;96.67;;
2035;SDS011;23642;42.658;23.350;2023-10-13T15:35:56;103.77;;;96.13;;
2035;SDS011;23642;42.658;23.350;2023-10-13T15:38:44;107.93;;;99.73;;
2035;SDS011;23642;42.658;23.350;2023-10-13T15:44:36;105.67;;;97.00;;
2035;SDS011;23642;42.658;23.350;2023-10-13T15:47:27;102.57;;;94.10;;
2035;SDS011;23642;42.658;23.350;2023-10-13T15:50:13;105.73;;;97.50;;
2035;SDS011;23642;42.658;23.350;2023-10-13T15:55:52;104.97;;;97.00;;
2035;SDS011;23642;42.658;23.350;2023-10-13T15:59:00;103.90;;;96.10;;
2035;SDS011;23642;42.658;23.350;2023-10-13T16:01:48;105.60;;;97.60;;
2035;SDS011;23642;42.658;23.350;2023-10-13T16:04:27;110.60;;;100.90;;
2035;SDS011;23642;42.658;23.350;2023-10-13T16:07:12;109.97;;;101.20;;
2035;SDS011;23642;42.658;23.350;2023-10-13T16:10:08;106.63;;;98.47;;
2035;SDS011;23642;42.658;23.350;2023-10-13T16:12:51;108.23;;;99.80;;
2035;SDS011;23642;42.658;23.350;2023-10-13T16:15:33;110.63;;;101.03;;
2035;SDS011;23642;42.658;23.350;2023-10-13T16:18:11;107.70;;;99.00;;
2035;SDS011;23642;42.658;23.350;2023-10-13T16:20:53;112.10;;;101.43;;
2035;SDS011;23642;42.658;23.350;2023-10-13T16:23:38;116.07;;;103.77;;
2035;SDS011;23642;42.658;23.350;2023-10-13T16:26:16;108.13;;;99.17;;
2035;SDS011;23642;42.658;23.350;2023-10-13T16:29:03;109.40;;;99.80;;
2035;SDS011;23642;42.658;23.350;2023-10-13T16:31:57;110.33;;;100.47;;
2035;SDS011;23642;42.658;23.350;2023-10-13T16:34:41;111.87;;;102.00;;
2035;SDS011;23642;42.658;23.350;2023-10-13T16:37:13;109.60;;;99.60;;
2035;SDS011;23642;42.658;23.350;2023-10-13T16:39:56;121.07;;;102.37;;
2035;SDS011;23642;42.658;23.350;2023-10-13T16:42:31;108.47;;;100.10;;
2035;SDS011;23642;42.658;23.350;2023-10-13T16:45:03;109.13;;;100.30;;
2035;SDS011;23642;42.658;23.350;2023-10-13T16:47:42;110.87;;;101.43;;
2035;SDS011;23642;42.658;23.350;2023-10-13T16:50:37;106.43;;;98.53;;
2035;SDS011;23642;42.658;23.350;2023-10-13T16:53:17;103.83;;;96.33;;
2035;SDS011;23642;42.658;23.350;2023-10-13T16:55:59;108.00;;;99.10;;
2035;SDS011;23642;42.658;23.350;2023-10-13T16:58:41;105.93;;;97.90;;
2035;SDS011;23642;42.658;23.350;2023-10-13T17:01:19;108.93;;;100.13;;
2035;SDS011;23642;42.658;23.350;2023-10-13T17:04:00;107.57;;;98.00;;
2035;SDS011;23642;42.658;23.350;2023-10-13T17:07:07;110.00;;;101.20;;
2035;SDS011;23642;42.658;23.350;2023-10-13T17:09:44;108.60;;;99.43;;
2035;SDS011;23642;42.658;23.350;2023-10-13T17:12:17;108.57;;;99.67;;
2035;SDS011;23642;42.658;23.350;2023-10-13T17:14:48;106.50;;;98.03;;
2035;SDS011;23642;42.658;23.350;2023-10-13T17:17:45;106.83;;;98.43;;
2035;SDS011;23642;42.658;23.350;2023-10-13T17:20:14;106.03;;;97.87;;
2035;SDS011;23642;42.658;23.350;2023-10-13T17:22:48;106.37;;;98.03;;
2035;SDS011;23642;42.658;23.350;2023-10-13T17:28:44;105.77;;;97.97;;
2035;SDS011;23642;42.658;23.350;2023-10-13T17:31:28;107.43;;;98.90;;
2035;SDS011;23642;42.658;23.350;2023-10-13T17:34:10;105.40;;;97.83;;
2035;SDS011;23642;42.658;23.350;2023-10-13T17:36:47;102.97;;;95.47;;
2035;SDS011;23642;42.658;23.350;2023-10-13T17:39:27;103.13;;;95.43;;
2035;SDS011;23642;42.658;23.350;2023-10-13T17:41:57;102.97;;;95.60;;
2035;SDS011;23642;42.658;23.350;2023-10-13T17:44:27;106.10;;;97.70;;
2035;SDS011;23642;42.658;23.350;2023-10-13T17:47:01;105.73;;;97.30;;
2035;SDS011;23642;42.658;23.350;2023-10-13T17:49:45;103.97;;;95.63;;
2035;SDS011;23642;42.658;23.350;2023-10-13T17:55:18;102.57;;;95.23;;
2035;SDS011;23642;42.658;23.350;2023-10-13T17:57:52;105.50;;;97.60;;
2035;SDS011;23642;42.658;23.350;2023-10-13T18:00:32;104.13;;;96.03;;
2035;SDS011;23642;42.658;23.350;2023-10-13T18:03:13;102.10;;;94.17;;
2035;SDS011;23642;42.658;23.350;2023-10-13T18:05:58;103.40;;;96.00;;
2035;SDS011;23642;42.658;23.350;2023-10-13T18:08:44;104.50;;;97.30;;
2035;SDS011;23642;42.658;23.350;2023-10-13T18:11:29;101.10;;;93.83;;
2035;SDS011;23642;42.658;23.350;2023-10-13T18:14:18;103.27;;;95.67;;
2035;SDS011;23642;42.658;23.350;2023-10-13T18:17:06;104.07;;;96.77;;
2035;SDS011;23642;42.658;23.350;2023-10-13T18:19:56;105.07;;;97.53;;
2035;SDS011;23642;42.658;23.350;2023-10-13T18:22:32;104.03;;;96.13;;
2035;SDS011;23642;42.658;23.350;2023-10-13T18:25:06;102.07;;;95.07;;
2035;SDS011;23642;42.658;23.350;2023-10-13T18:28:00;104.80;;;96.77;;
2035;SDS011;23642;42.658;23.350;2023-10-13T18:30:38;102.43;;;95.00;;
2035;SDS011;23642;42.658;23.350;2023-10-13T18:33:13;106.20;;;98.57;;
2035;SDS011;23642;42.658;23.350;2023-10-13T18:35:49;102.73;;;95.63;;
2035;SDS011;23642;42.658;23.350;2023-10-13T18:38:26;102.30;;;94.50;;